.
WxDataArchive / Data Records for 2007-10-04
2007-10-03 October 2007 2007-10-05

Data Records for Thursday, 04 October 2007

Time	Temp	Chill	HIndex	Humid	Dewpt	 Wind 	HiWind	WindDir	Rain 	Barom 
-----	----	-----	------	-----	-----	------	------	-------	-----	----- 
00:00	53.9	53.9	53.9	92	51.6	0	0	---	0.00	30.017 
00:05	53.8	53.8	53.8	92	51.5	0	0	---	0.00	30.015 
00:10	53.8	53.8	53.8	92	51.5	0	0	---	0.00	30.013 
00:15	53.8	53.8	53.8	92	51.5	0	0	---	0.00	30.014 
00:20	53.8	53.8	53.8	91	51.2	0	0	---	0.00	30.012 
00:25	53.6	53.6	53.6	91	51.0	0	0	---	0.00	30.013 
00:30	53.6	53.6	53.6	91	51.0	0	0	---	0.00	30.015 
00:35	53.5	53.5	53.5	91	50.9	0	0	---	0.00	30.012 
00:40	53.5	53.5	53.5	91	50.9	0	0	---	0.00	30.014 
00:45	53.3	53.3	53.3	91	50.7	0	0	---	0.00	30.016 
00:50	53.3	53.3	53.3	91	50.7	0	0	---	0.00	30.018 
00:55	53.2	53.2	53.2	91	50.6	0	0	---	0.00	30.017 
01:00	53.2	53.2	53.2	92	50.9	0	0	---	0.00	30.016 
01:05	53.2	53.2	53.2	92	50.9	0	0	---	0.00	30.016 
01:10	53.1	53.1	53.1	92	50.8	0	0	---	0.00	30.017 
01:15	53.1	53.1	53.1	92	50.8	0	0	---	0.00	30.018 
01:20	53.1	53.1	53.1	92	50.8	0	0	---	0.00	30.018 
01:25	53.1	53.1	53.1	92	50.8	0	0	---	0.00	30.018 
01:30	53.1	53.1	53.1	92	50.8	0	0	---	0.00	30.018 
01:35	53.1	53.1	53.1	92	50.8	0	0	---	0.00	30.018 
01:40	52.9	52.9	52.9	92	50.6	0	0	---	0.00	30.018 
01:45	52.9	52.9	52.9	92	50.6	0	0	---	0.00	30.017 
01:50	52.8	52.8	52.8	92	50.5	0	0	---	0.00	30.014 
01:55	52.8	52.8	52.8	92	50.5	0	0	---	0.00	30.014 
02:00	52.8	52.8	52.8	92	50.5	0	0	---	0.00	30.015 
02:05	52.8	52.8	52.8	91	50.2	0	0	---	0.00	30.016 
02:10	52.8	52.8	52.8	91	50.2	0	0	---	0.00	30.014 
02:15	52.8	52.8	52.8	91	50.2	0	0	---	0.00	30.014 
02:20	52.8	52.8	52.8	91	50.2	0	0	---	0.00	30.015 
02:25	52.8	52.8	52.8	91	50.2	0	0	---	0.00	30.013 
02:30	52.6	52.6	52.6	91	50.0	0	0	---	0.00	30.011 
02:35	52.6	52.6	52.6	90	49.7	0	0	---	0.00	30.013 
02:40	52.6	52.6	52.6	90	49.7	0	0	---	0.00	30.013 
02:45	52.5	52.5	52.5	89	49.4	0	0	---	0.00	30.015 
02:50	52.5	52.5	52.5	89	49.4	0	0	---	0.00	30.012 
02:55	52.5	52.5	52.5	89	49.4	0	0	---	0.00	30.013 
03:00	52.5	52.5	52.5	89	49.4	0	0	---	0.00	30.014 
03:05	52.5	52.5	52.5	89	49.4	0	0	---	0.00	30.013 
03:10	52.5	52.5	52.5	89	49.4	0	0	---	0.00	30.014 
03:15	52.3	52.3	52.3	88	48.9	0	0	---	0.00	30.019 
03:20	52.3	52.3	52.3	88	48.9	0	0	---	0.00	30.019 
03:25	52.3	52.3	52.3	88	48.9	0	0	---	0.00	30.017 
03:30	52.3	52.3	52.3	89	49.2	0	0	---	0.00	30.016 
03:35	52.3	52.3	52.3	88	48.9	0	0	---	0.00	30.019 
03:40	52.5	52.5	52.5	88	49.0	0	0	---	0.00	30.019 
03:45	52.5	52.5	52.5	87	48.7	0	0	---	0.00	30.019 
03:50	52.6	52.6	52.6	86	48.5	0	0	---	0.00	30.020 
03:55	52.8	52.8	52.8	85	48.4	0	0	---	0.00	30.021 
04:00	52.9	52.9	52.9	85	48.5	0	0	---	0.00	30.023 
04:05	52.9	52.9	52.9	85	48.5	0	0	---	0.00	30.025 
04:10	52.9	52.9	52.9	85	48.5	0	0	---	0.00	30.026 
04:15	52.9	52.9	52.9	85	48.5	0	0	---	0.00	30.026 
04:20	52.9	52.9	52.9	85	48.5	0	0	---	0.00	30.026 
04:25	52.9	52.9	52.9	85	48.5	0	0	---	0.00	30.024 
04:30	52.8	52.8	52.8	85	48.4	0	0	---	0.00	30.023 
04:35	52.8	52.8	52.8	85	48.4	0	0	---	0.00	30.024 
04:40	52.8	52.8	52.8	85	48.4	0	0	---	0.00	30.026 
04:45	52.8	52.8	52.8	85	48.4	0	0	---	0.00	30.028 
04:50	52.8	52.8	52.8	85	48.4	0	0	---	0.00	30.029 
04:55	52.8	52.8	52.8	85	48.4	0	0	---	0.00	30.029 
05:00	52.6	52.6	52.6	85	48.2	0	0	---	0.00	30.028 
05:05	52.6	52.6	52.6	86	48.5	0	0	---	0.00	30.032 
05:10	52.6	52.6	52.6	86	48.5	0	0	---	0.00	30.034 
05:15	52.6	52.6	52.6	86	48.5	0	0	---	0.00	30.035 
05:20	52.6	52.6	52.6	86	48.5	0	0	---	0.00	30.033 
05:25	52.8	52.8	52.8	86	48.7	0	0	---	0.00	30.036 
05:30	52.8	52.8	52.8	86	48.7	0	1	270	0.00	30.037 
05:35	52.9	52.9	52.9	86	48.8	0	0	---	0.00	30.038 
05:40	53.1	53.1	53.1	86	49.0	0	0	---	0.00	30.039 
05:45	53.2	53.2	53.2	86	49.1	0	1	270	0.00	30.039 
05:50	53.5	53.5	53.5	84	48.8	0	1	270	0.00	30.040 
05:55	53.8	53.8	53.8	83	48.8	0	0	---	0.00	30.042 
06:00	53.9	53.9	53.9	83	48.9	0	1	270	0.00	30.044 
06:05	54.1	54.1	54.1	83	49.1	0	1	270	0.00	30.053 
06:10	54.1	54.1	54.1	83	49.1	0	0	---	0.00	30.057 
06:15	53.9	53.9	53.9	83	48.9	0	0	---	0.00	30.058 
06:20	53.8	53.8	53.8	84	49.1	0	0	---	0.00	30.059 
06:25	53.6	53.6	53.6	84	48.9	0	0	---	0.00	30.059 
06:30	53.5	53.5	53.5	85	49.1	0	0	---	0.00	30.059 
06:35	53.3	53.3	53.3	85	48.9	0	0	---	0.00	30.061 
06:40	53.2	53.2	53.2	85	48.8	0	0	---	0.00	30.062 
06:45	53.1	53.1	53.1	86	49.0	0	0	---	0.00	30.065 
06:50	53.1	53.1	53.1	86	49.0	0	0	---	0.00	30.068 
06:55	53.3	53.3	53.3	87	49.5	0	1	270	0.00	30.070 
07:00	53.6	53.6	53.6	86	49.5	0	1	270	0.00	30.071 
07:05	54.1	54.1	54.1	84	49.4	0	1	270	0.00	30.072 
07:10	54.4	54.4	54.4	84	49.7	0	0	---	0.00	30.074 
07:15	54.7	54.7	54.7	84	50.0	0	1	270	0.00	30.074 
07:20	54.8	54.8	54.8	83	49.7	0	1	270	0.00	30.075 
07:25	55.0	55.0	55.0	83	49.9	0	0	---	0.00	30.076 
07:30	55.3	55.3	55.3	82	49.9	0	1	270	0.00	30.077 
07:35	55.6	55.6	55.6	83	50.5	0	1	270	0.00	30.077 
07:40	55.9	55.9	55.9	82	50.5	0	1	270	0.00	30.078 
07:45	56.5	56.5	56.5	83	51.4	0	1	270	0.00	30.078 
07:50	56.9	56.9	56.9	81	51.1	0	2	270	0.00	30.077 
07:55	57.3	57.3	57.3	81	51.5	0	2	270	0.00	30.079 
08:00	57.8	57.8	57.8	81	52.0	0	1	270	0.00	30.082 
08:05	58.1	58.1	58.1	80	52.0	1	2	270	0.00	30.083 
08:10	58.6	58.6	58.6	81	52.8	1	2	270	0.00	30.086 
08:15	59.0	59.0	59.0	81	53.2	0	2	270	0.00	30.086 
08:20	59.5	59.5	59.5	81	53.7	0	1	68	0.00	30.089 
08:25	59.8	59.8	59.8	80	53.6	1	3	68	0.00	30.089 
08:30	60.2	60.2	60.2	80	54.0	1	2	68	0.00	30.090 
08:35	60.5	60.5	60.5	81	54.6	0	2	68	0.00	30.091 
08:40	60.9	60.9	60.9	81	55.0	0	1	68	0.00	30.092 
08:45	61.3	61.3	61.3	81	55.4	0	2	68	0.00	30.093 
08:50	61.6	61.6	61.6	81	55.7	1	3	68	0.00	30.092 
08:55	61.8	61.8	61.8	82	56.2	1	3	68	0.00	30.094 
09:00	62.0	62.0	62.0	82	56.4	1	4	68	0.00	30.096 
09:05	62.3	62.3	62.3	83	57.1	0	2	90	0.00	30.100 
09:10	62.6	62.6	62.6	82	57.0	1	2	90	0.00	30.100 
09:15	62.7	62.7	62.7	82	57.1	0	2	90	0.00	30.099 
09:20	62.9	62.9	62.9	82	57.3	1	3	90	0.00	30.101 
09:25	63.2	63.2	63.2	83	57.9	0	2	90	0.00	30.097 
09:30	63.4	63.4	63.4	82	57.8	0	2	90	0.00	30.096 
09:35	63.7	63.7	63.7	81	57.8	1	2	90	0.00	30.097 
09:40	64.0	64.0	64.0	81	58.0	1	2	90	0.00	30.100 
09:45	64.3	64.3	64.3	81	58.3	0	2	90	0.00	30.096 
09:50	64.7	64.7	64.7	80	58.4	0	2	90	0.00	30.097 
09:55	65.0	65.0	65.0	81	59.0	1	3	90	0.00	30.094 
10:00	65.5	65.5	65.5	79	58.8	0	1	90	0.00	30.090 
10:05	66.1	66.1	66.1	79	59.4	0	2	90	0.00	30.093 
10:10	66.4	66.4	66.4	77	59.0	1	2	90	0.00	30.091 
10:15	66.8	66.8	66.8	76	59.0	1	2	90	0.00	30.090 
10:20	67.3	67.3	67.3	75	59.1	0	2	90	0.00	30.091 
10:25	67.9	67.9	67.9	74	59.3	0	1	90	0.00	30.090 
10:30	68.6	68.6	68.6	72	59.2	0	2	90	0.00	30.089 
10:35	69.1	69.1	69.1	72	59.7	0	2	90	0.00	30.087 
10:40	69.4	69.4	69.4	72	60.0	0	2	90	0.00	30.087 
10:45	69.6	69.6	69.6	71	59.8	0	2	90	0.00	30.085 
10:50	70.1	70.1	70.1	71	60.2	0	2	90	0.00	30.084 
10:55	70.4	70.4	70.4	70	60.1	0	2	90	0.00	30.084 
11:00	70.9	70.9	70.9	71	61.0	0	2	90	0.00	30.082 
11:05	71.3	71.3	71.3	70	61.0	0	2	90	0.00	30.084 
11:10	71.5	71.5	71.5	69	60.8	1	3	90	0.00	30.082 
11:15	71.8	71.8	71.8	69	61.1	0	3	90	0.00	30.080 
11:20	72.3	72.3	72.3	68	61.1	1	3	90	0.00	30.081 
11:25	73.0	73.0	73.0	65	60.5	0	2	90	0.00	30.080 
11:30	73.7	73.7	73.7	66	61.6	0	2	90	0.00	30.078 
11:35	74.4	74.4	74.4	64	61.4	0	1	90	0.00	30.077 
11:40	75.1	75.1	77.3	62	61.2	0	3	90	0.00	30.074 
11:45	76.0	76.0	78.0	62	62.0	0	1	90	0.00	30.071 
11:50	76.5	76.5	78.4	58	60.6	1	3	90	0.00	30.071 
11:55	77.0	77.0	78.8	61	62.5	0	2	90	0.00	30.071 
12:00	77.7	77.7	79.4	59	62.2	0	1	90	0.00	30.068 
12:05	78.3	78.3	79.7	55	60.8	1	3	90	0.00	30.068 
12:10	78.3	78.3	79.8	56	61.3	1	3	90	0.00	30.068 
12:15	78.6	78.6	80.2	59	63.1	0	1	90	0.00	30.064 
12:20	79.0	79.0	80.5	58	62.9	1	4	90	0.00	30.062 
12:25	79.2	79.2	80.4	54	61.1	1	4	90	0.00	30.061 
12:30	79.4	79.4	80.5	53	60.8	1	3	90	0.00	30.060 
12:35	79.8	79.8	81.0	54	61.7	1	3	90	0.00	30.059 
12:40	80.3	80.3	81.6	55	62.6	1	3	90	0.00	30.057 
12:45	80.7	80.7	81.4	50	60.3	1	3	90	0.00	30.052 
12:50	81.1	81.1	81.6	48	59.5	1	4	90	0.00	30.050 
12:55	81.4	81.4	82.0	49	60.4	1	4	90	0.00	30.049 
13:00	81.2	81.2	81.5	46	58.4	1	5	90	0.00	30.046 
13:05	81.2	81.2	81.8	49	60.2	1	3	90	0.00	30.044 
13:10	81.6	81.6	81.9	47	59.4	1	2	90	0.00	30.042 
13:15	81.8	81.8	82.0	46	59.0	1	3	90	0.00	30.040 
13:20	82.4	82.4	82.5	45	58.9	1	4	270	0.00	30.039 
13:25	82.6	82.6	83.1	48	60.9	0	2	248	0.00	30.036 
13:30	82.6	82.6	82.4	43	57.8	1	3	90	0.00	30.033 
13:35	82.8	82.8	82.7	44	58.6	1	2	90	0.00	30.033 
13:40	82.8	82.8	82.9	45	59.3	0	3	292	0.00	30.032 
13:45	82.8	82.8	82.9	45	59.3	1	3	45	0.00	30.030 
13:50	82.8	82.8	82.9	45	59.3	0	3	45	0.00	30.030 
13:55	83.0	83.0	82.8	43	58.2	1	3	270	0.00	30.030 
14:00	83.0	83.0	82.6	42	57.5	1	6	270	0.00	30.030 
14:05	83.2	83.2	83.0	43	58.3	1	2	248	0.00	30.029 
14:10	82.8	82.8	82.4	42	57.3	0	2	248	0.00	30.029 
14:15	82.4	82.4	82.3	44	58.3	0	2	248	0.00	30.031 
14:20	82.4	82.4	82.3	44	58.3	0	1	248	0.00	30.031 
14:25	82.4	82.4	82.6	46	59.5	0	1	248	0.00	30.030 
14:30	82.4	82.4	82.3	44	58.3	0	1	248	0.00	30.028 
14:35	82.6	82.6	82.5	44	58.4	0	1	248	0.00	30.029 
14:40	82.6	82.6	82.5	44	58.4	0	1	248	0.00	30.027 
14:45	82.8	82.8	82.4	42	57.3	0	1	248	0.00	30.027 
14:50	82.8	82.8	82.6	43	58.0	0	2	248	0.00	30.025 
14:55	83.0	83.0	83.2	46	60.1	0	1	248	0.00	30.024 
15:00	83.2	83.2	83.4	46	60.2	0	2	225	0.00	30.021 
15:05	83.2	83.2	82.8	42	57.7	0	2	202	0.00	30.021 
15:10	83.2	83.2	83.3	45	59.6	1	3	202	0.00	30.018 
15:15	83.2	83.2	83.1	44	59.0	0	1	158	0.00	30.017 
15:20	83.2	83.2	83.0	43	58.3	0	2	112	0.00	30.017 
15:25	83.2	83.2	83.0	43	58.3	1	2	112	0.00	30.015 
15:30	83.0	83.0	83.1	45	59.4	1	3	270	0.00	30.014 
15:35	83.0	83.0	83.1	45	59.4	0	3	90	0.00	30.013 
15:40	83.0	83.0	82.9	44	58.8	1	2	45	0.00	30.013 
15:45	83.2	83.2	83.4	46	60.2	0	1	45	0.00	30.011 
15:50	83.2	83.2	83.3	45	59.6	0	2	45	0.00	30.012 
15:55	83.2	83.2	83.1	44	59.0	0	2	45	0.00	30.011 
16:00	83.0	83.0	83.2	46	60.1	0	1	45	0.00	30.010 
16:05	83.0	83.0	83.1	45	59.4	0	2	45	0.00	30.009 
16:10	83.0	83.0	83.1	45	59.4	1	3	45	0.00	30.009 
16:15	83.0	83.0	82.9	44	58.8	0	2	112	0.00	30.007 
16:20	83.2	83.2	83.3	45	59.6	1	3	270	0.00	30.007 
16:25	83.2	83.2	83.3	45	59.6	0	1	270	0.00	30.008 
16:30	83.0	83.0	83.2	46	60.1	0	3	270	0.00	30.008 
16:35	82.8	82.8	83.0	46	59.9	0	3	338	0.00	30.007 
16:40	82.8	82.8	83.0	46	59.9	0	2	0	0.00	30.006 
16:45	82.8	82.8	83.0	46	59.9	0	2	248	0.00	30.006 
16:50	82.6	82.6	83.0	47	60.3	0	1	248	0.00	30.004 
16:55	82.6	82.6	83.1	48	60.9	0	2	248	0.00	30.003 
17:00	82.4	82.4	82.9	48	60.7	0	2	248	0.00	30.004 
17:05	82.4	82.4	82.7	47	60.1	1	3	248	0.00	30.004 
17:10	82.2	82.2	82.5	47	59.9	0	1	135	0.00	30.005 
17:15	82.2	82.2	82.7	48	60.5	0	1	135	0.00	30.006 
17:20	82.2	82.2	82.8	49	61.1	0	1	135	0.00	30.006 
17:25	81.8	81.8	82.4	49	60.7	0	0	---	0.00	30.007 
17:30	81.6	81.6	82.3	50	61.1	0	0	---	0.00	30.008 
17:35	81.2	81.2	81.9	50	60.8	0	0	---	0.00	30.010 
17:40	81.1	81.1	82.0	51	61.2	0	0	---	0.00	30.011 
17:45	80.5	80.5	81.6	53	61.8	0	0	---	0.00	30.012 
17:50	80.1	80.1	81.2	53	61.4	0	0	---	0.00	30.013 
17:55	79.6	79.6	81.1	57	63.0	0	0	---	0.00	30.013 
18:00	79.2	79.2	80.7	57	62.6	0	0	---	0.00	30.015 
18:05	78.6	78.6	80.1	57	62.1	0	0	---	0.00	30.015 
18:10	78.1	78.1	79.7	59	62.6	0	0	---	0.00	30.015 
18:15	77.6	77.6	79.3	61	63.1	0	0	---	0.00	30.016 
18:20	76.8	76.8	78.6	62	62.8	0	0	---	0.00	30.018 
18:25	76.1	76.1	78.0	64	63.0	0	0	---	0.00	30.018 
18:30	75.6	75.6	77.5	65	63.0	0	0	---	0.00	30.018 
18:35	75.1	75.1	77.1	66	62.9	0	0	---	0.00	30.021 
18:40	74.7	74.7	74.7	67	63.0	0	0	---	0.00	30.024 
18:45	74.2	74.2	74.2	67	62.5	0	0	---	0.00	30.027 
18:50	73.7	73.7	73.7	69	62.9	0	0	---	0.00	30.030 
18:55	73.2	73.2	73.2	69	62.4	0	0	---	0.00	30.033 
19:00	72.7	72.7	72.7	70	62.3	0	0	---	0.00	30.034 
19:05	72.3	72.3	72.3	71	62.4	0	0	---	0.00	30.031 
19:10	71.8	71.8	71.8	73	62.7	0	0	---	0.00	30.032 
19:15	71.5	71.5	71.5	74	62.8	0	0	---	0.00	30.032 
19:20	71.1	71.1	71.1	75	62.8	0	0	---	0.00	30.035 
19:25	70.8	70.8	70.8	76	62.8	0	0	---	0.00	30.035 
19:30	70.4	70.4	70.4	77	62.8	0	0	---	0.00	30.036 
19:35	70.1	70.1	70.1	77	62.5	0	0	---	0.00	30.037 
19:40	69.9	69.9	69.9	78	62.7	0	0	---	0.00	30.038 
19:45	69.6	69.6	69.6	79	62.8	0	0	---	0.00	30.038 
19:50	69.4	69.4	69.4	80	63.0	0	0	---	0.00	30.041 
19:55	69.3	69.3	69.3	81	63.2	0	0	---	0.00	30.044 
20:00	69.1	69.1	69.1	81	63.0	0	0	---	0.00	30.043 
20:05	68.9	68.9	68.9	82	63.2	0	0	---	0.00	30.042 
20:10	68.8	68.8	68.8	83	63.4	0	0	---	0.00	30.043 
20:15	68.6	68.6	68.6	83	63.2	0	1	135	0.00	30.046 
20:20	68.4	68.4	68.4	84	63.4	0	0	---	0.00	30.047 
20:25	68.3	68.3	68.3	84	63.3	0	0	---	0.00	30.047 
20:30	68.1	68.1	68.1	85	63.4	0	0	---	0.00	30.047 
20:35	67.9	67.9	67.9	85	63.2	0	0	---	0.00	30.048 
20:40	67.8	67.8	67.8	85	63.1	0	0	---	0.00	30.049 
20:45	67.6	67.6	67.6	86	63.3	0	0	---	0.00	30.050 
20:50	67.4	67.4	67.4	86	63.1	0	0	---	0.00	30.053 
20:55	67.3	67.3	67.3	86	63.0	0	0	---	0.00	30.055 
21:00	67.1	67.1	67.1	87	63.1	0	0	---	0.00	30.055 
21:05	66.9	66.9	66.9	87	62.9	0	0	---	0.00	30.051 
21:10	66.8	66.8	66.8	87	62.8	0	0	---	0.00	30.054 
21:15	66.6	66.6	66.6	87	62.6	0	0	---	0.00	30.058 
21:20	66.4	66.4	66.4	88	62.7	0	0	---	0.00	30.058 
21:25	66.3	66.3	66.3	88	62.6	0	0	---	0.00	30.060 
21:30	66.3	66.3	66.3	88	62.6	0	0	---	0.00	30.060 
21:35	66.1	66.1	66.1	88	62.4	0	0	---	0.00	30.060 
21:40	66.0	66.0	66.0	89	62.7	0	0	---	0.00	30.061 
21:45	65.8	65.8	65.8	89	62.5	0	0	---	0.00	30.061 
21:50	65.8	65.8	65.8	89	62.5	0	0	---	0.00	30.059 
21:55	65.6	65.6	65.6	89	62.3	0	0	---	0.00	30.060 
22:00	65.5	65.5	65.5	89	62.2	0	0	---	0.00	30.061 
22:05	65.3	65.3	65.3	89	62.0	0	0	---	0.00	30.058 
22:10	65.3	65.3	65.3	90	62.3	0	0	---	0.00	30.059 
22:15	65.2	65.2	65.2	90	62.2	0	0	---	0.00	30.059 
22:20	65.2	65.2	65.2	91	62.5	0	0	---	0.00	30.061 
22:25	65.2	65.2	65.2	90	62.2	0	0	---	0.00	30.061 
22:30	65.2	65.2	65.2	91	62.5	0	0	---	0.00	30.060 
22:35	65.2	65.2	65.2	91	62.5	0	0	---	0.00	30.061 
22:40	65.2	65.2	65.2	91	62.5	0	0	---	0.00	30.060 
22:45	65.2	65.2	65.2	91	62.5	0	0	---	0.00	30.059 
22:50	65.0	65.0	65.0	91	62.3	0	0	---	0.00	30.060 
22:55	65.0	65.0	65.0	91	62.3	0	0	---	0.00	30.059 
23:00	64.8	64.8	64.8	92	62.4	0	0	---	0.00	30.059 
23:05	64.7	64.7	64.7	92	62.3	0	0	---	0.00	30.055 
23:10	64.7	64.7	64.7	92	62.3	0	0	---	0.00	30.055 
23:15	64.5	64.5	64.5	92	62.1	0	0	---	0.00	30.055 
23:20	64.3	64.3	64.3	92	61.9	0	0	---	0.00	30.056 
23:25	64.3	64.3	64.3	92	61.9	0	1	135	0.00	30.057 
23:30	64.3	64.3	64.3	92	61.9	0	0	---	0.00	30.057 
23:35	64.3	64.3	64.3	92	61.9	0	0	---	0.00	30.058 
23:40	64.2	64.2	64.2	92	61.8	0	0	---	0.00	30.058 
23:45	64.2	64.2	64.2	93	62.1	0	0	---	0.00	30.058 
23:50	64.0	64.0	64.0	93	61.9	0	0	---	0.00	30.060 
23:55	63.9	63.9	63.9	93	61.8	0	0	---	0.00	30.061 

CoCoRaHS
IN-AL-39
A2 Web Hosting
Creative Commons License
GoDaddy
Look for:

loaded 2017-10-19 12:15:42 • last modified 2010-11-18 10:43:29
Privacy PolicyDisclaimer
• wx.awcolley.com is powered by PmWiki v.2002016 •
• all content (unless otherwise noted) © 2017 A W Colley